Flight Track Log - Related Links

Times and Time Zones

All times are in EST time to prevent confusion due to time zone crossing. See the UCA3598 flight status page for this flight to view local times or setup timezone preferences in your user account.

Time Position Orientation Groundspeed Altitude Reporting Facility
EST Latitude Longitude Course Direction KTS MPH feet Rate Location/Type
Mon 10:21:46 PM 38.9833 -77.5333 North 170 196 2,500  Level Potomac TRACON
Mon 10:22:46 PM 39.0333 -77.5333 360° North 189 217 3,900 1,450 Climbing Potomac TRACON
Mon 10:23:46 PM 39.0833 -77.5500 345° North 190 219 5,400 1,710 Climbing Potomac TRACON
Mon 10:25:52 PM 39.1725 -77.5594 355° North 178 205 9,200 1,859 Climbing Washington Center
Mon 10:26:50 PM 39.2206 -77.5472 11° North 178 205 11,100 1,400 Climbing Washington Center
Mon 10:27:00 PM 39.3262 -77.2956 North  Level Estimated
Mon 10:27:52 PM 39.2728 -77.5353 10° North 183 211 12,000  Level Washington Center
Mon 10:28:50 PM 39.3397 -77.5211 North 207 238 12,000  Level Washington Center
Mon 10:29:50 PM 39.4172 -77.5017 11° North 246 283 12,000  Level Washington Center
Mon 10:30:50 PM 39.4944 -77.4875 North 271 312 12,000 49 Level Washington Center
Mon 10:31:52 PM 39.5700 -77.4706 10° North 277 319 12,100 678 Climbing Washington Center
Mon 10:33:47 PM 39.6969 -77.4544 North 225 259 14,000 720 Climbing New York Center
Mon 10:34:47 PM 39.7742 -77.4539 360° North 237 273 14,200 661 Climbing New York Center
Mon 10:35:45 PM 39.8389 -77.4519 North 250 288 15,300 900 Climbing New York Center
Mon 10:36:47 PM 39.9119 -77.4128 22° Northeast 250 288 16,000 605 Climbing New York Center
Mon 10:37:44 PM 39.9786 -77.3783 22° Northeast 269 310 16,500 850 Climbing New York Center
Mon 10:38:47 PM 40.0539 -77.3367 23° Northeast 274 315 17,700 1,050 Climbing New York Center
Mon 10:39:44 PM 40.1161 -77.3047 21° North 263 303 18,600 661 Climbing New York Center
Mon 10:40:45 PM 40.1936 -77.2603 24° Northeast 263 303 19,000 198 Climbing New York Center
Mon 10:41:45 PM 40.2603 -77.2231 23° Northeast 274 315 19,000  Level New York Center
Mon 10:42:46 PM 40.3461 -77.1764 23° Northeast 281 323 19,000  Level New York Center
Mon 10:43:47 PM 40.4147 -77.1392 22° Northeast 287 330 19,000  Level New York Center
Mon 10:44:44 PM 40.4967 -77.0922 24° Northeast 292 336 19,000 -153 Level New York Center
Mon 10:45:45 PM 40.5675 -77.0522 23° Northeast 298 343 18,700 -393 Descending New York Center
Mon 10:46:46 PM 40.6578 -77.0031 22° Northeast 303 349 18,200 -397 Descending New York Center
Mon 10:47:46 PM 40.7308 -76.9603 24° Northeast 309 356 17,900 -298 Descending New York Center
Mon 10:48:47 PM 40.8186 -76.9133 22° Northeast 309 356 17,600 -454 Descending New York Center
Mon 10:49:45 PM 40.8894 -76.8731 23° Northeast 304 350 17,000 -610 Descending New York Center
Mon 10:50:45 PM 40.9756 -76.8231 24° Northeast 304 350 16,400 -595 Descending New York Center
Mon 10:51:46 PM 41.0506 -76.7775 25° Northeast 304 350 15,800 -600 Descending New York Center
Mon 10:52:45 PM 41.1278 -76.7375 21° North 304 350 15,200 -353 Descending New York Center
Mon 10:53:45 PM 41.2008 -76.6942 24° Northeast 299 344 15,100 -151 Descending New York Center
Mon 10:54:44 PM 41.2694 -76.6533 24° Northeast 281 323 14,900 -454 Descending New York Center
Mon 10:55:44 PM 41.3422 -76.6128 23° Northeast 276 318 14,200 -689 Descending New York Center
Mon 10:56:46 PM 41.4153 -76.5692 24° Northeast 276 318 13,500 -744 Descending New York Center
Mon 10:57:45 PM 41.4817 -76.5306 24° Northeast 282 325 12,700 -908 Descending New York Center
Mon 10:58:45 PM 41.5672 -76.4825 23° Northeast 287 330 11,700 -942 Descending New York Center
Mon 10:59:46 PM 41.6422 -76.4392 23° Northeast 292 336 10,800 -836 Descending New York Center
Mon 11:00:47 PM 41.7153 -76.3953 24° Northeast 282 325 10,000 -908 Descending New York Center
Mon 11:01:45 PM 41.7772 -76.3614 22° Northeast 270 311 9,000 -958 Descending New York Center
Mon 11:02:46 PM 41.8414 -76.3222 24° Northeast 258 297 8,100 -900 Descending New York Center
Mon 11:03:45 PM 41.8864 -76.2508 50° Northeast 238 274 7,200 -1,068 Descending New York Center
Mon 11:04:44 PM 41.9086 -76.1747 69° East 219 252 6,000 -1,150 Descending New York Center
Mon 11:05:45 PM 41.9267 -76.0981 72° East 214 246 4,900 -992 Descending New York Center
Mon 11:06:45 PM 41.9422 -76.0297 73° East 209 241 4,000 -443 Descending New York Center
Mon 11:07:47 PM 41.9597 -75.9642 70° East 198 228 4,000  Level New York Center
Mon 11:08:44 PM 41.9775 -75.8875 73° East 193 222 4,000 -51 Level New York Center
Mon 11:09:44 PM 42.0072 -75.8283 56° Northeast 198 228 3,900 -49 Descending New York Center
Mon 11:10:47 PM 42.0419 -75.8422 343° North 137 158 3,900  Level New York Center
Mon 11:11:44 PM 42.0700 -75.8667 327° Northwest 118 136 3,900  Level New York Center
Mon 11:13:00 PM 42.0797 -75.9877 276° West  Level FlightAware Approximate
Mon 11:20:00 PM 42.2000 -75.9667 North  Level FlightAware Approximate
Mon 11:21:00 PM 42.2084 -75.9796 North  Level Estimated
Mon 11:22:00 PM 42.2084 -75.9796 North  Level Estimated

Login

Don't have an account? Register now (free) for customized features, flight alerts, and more!